Terminal Aerodrome Forecast
Issued by NWS

Home | Current Version | Previous Version | Graphics & Text | Print | Product List | Glossary On
Versions: 1 2 3 4 5 6 7 8 9 10 11 12 13 14 15 16 17
000
FTUS43 KBIS 242200 AAA
TAFMOT
TAF AMD
KMOT 242211Z 2422/2518 07007KT P6SM -SN OVC040
     FM250300 07008KT 4SM -SN BKN012 OVC030
     FM250600 06009KT 1 1/2SM -SN BR OVC012
     FM251400 02008KT 5SM -SN BKN020=

USA.gov is the U.S. government's official web portal to all federal, state and local government web resources and services.